createdAt,value
2022-11-24T00:01:07.229Z,100.00
2022-11-24T00:03:34.328Z,100.00
2022-11-24T00:06:06.224Z,100.00
2022-11-24T00:08:33.825Z,100.00
2022-11-24T00:11:29.527Z,100.00
2022-11-24T00:13:57.954Z,100.00
2022-11-24T00:16:36.294Z,100.00
2022-11-24T00:19:14.619Z,100.00
2022-11-24T00:21:43.815Z,100.00
2022-11-24T00:24:11.508Z,100.00
2022-11-24T00:26:38.243Z,100.00
2022-11-24T00:29:07.953Z,100.00
2022-11-24T00:31:39.832Z,100.00
2022-11-24T00:34:10.856Z,100.00
2022-11-24T00:36:38.821Z,100.00
2022-11-24T00:39:12.732Z,100.00
2022-11-24T00:41:39.471Z,100.00
2022-11-24T00:44:09.048Z,100.00
2022-11-24T00:46:36.083Z,100.00
2022-11-24T00:49:04.495Z,100.00
2022-11-24T00:51:31.358Z,100.00
2022-11-24T00:53:59.760Z,100.00
2022-11-24T00:56:27.641Z,100.00
2022-11-24T00:58:54.420Z,100.00
2022-11-24T01:01:24.698Z,100.00
2022-11-24T01:03:51.999Z,100.00
2022-11-24T01:06:20.007Z,100.00
2022-11-24T01:08:47.222Z,100.00
2022-11-24T01:11:15.680Z,100.00
2022-11-24T01:13:43.856Z,100.00
2022-11-24T01:16:18.789Z,100.00
2022-11-24T01:18:46.159Z,100.00
2022-11-24T01:21:12.985Z,100.00
2022-11-24T01:23:40.230Z,100.00
2022-11-24T01:26:13.784Z,100.00
2022-11-24T01:28:46.345Z,100.00
2022-11-24T01:31:17.019Z,100.00
2022-11-24T01:33:44.154Z,100.00
2022-11-24T01:36:11.008Z,100.00
2022-11-24T01:38:37.776Z,100.00
2022-11-24T01:41:07.796Z,100.00
2022-11-24T01:43:35.024Z,100.00
2022-11-24T01:46:20.448Z,100.00
2022-11-24T01:48:58.312Z,100.00
2022-11-24T01:51:27.100Z,100.00
2022-11-24T01:54:03.023Z,100.00
2022-11-24T01:56:31.123Z,100.00
2022-11-24T01:59:02.995Z,100.00
2022-11-24T02:01:32.241Z,100.00
2022-11-24T02:04:02.809Z,100.00
2022-11-24T02:06:31.760Z,100.00
2022-11-24T02:09:21.478Z,100.00
2022-11-24T02:11:48.261Z,100.00
2022-11-24T02:14:18.313Z,100.00
2022-11-24T02:16:49.393Z,100.00
2022-11-24T02:19:41.502Z,100.00
2022-11-24T02:22:19.332Z,100.00
2022-11-24T02:25:01.153Z,100.00
2022-11-24T02:27:27.993Z,100.00
2022-11-24T02:29:56.858Z,100.00
2022-11-24T02:32:24.126Z,100.00
2022-11-24T02:35:00.416Z,100.00
2022-11-24T02:37:27.160Z,100.00
2022-11-24T02:39:54.014Z,100.00
2022-11-24T02:42:21.188Z,100.00
2022-11-24T02:44:51.257Z,100.00
2022-11-24T02:47:17.988Z,100.00
2022-11-24T02:49:44.822Z,100.00
2022-11-24T02:52:11.574Z,100.00
2022-11-24T02:54:38.305Z,100.00
2022-11-24T02:57:05.345Z,100.00
2022-11-24T02:59:34.065Z,100.00
2022-11-24T03:02:01.165Z,100.00
2022-11-24T03:04:27.785Z,100.00
2022-11-24T03:06:54.716Z,100.00
2022-11-24T03:09:21.422Z,100.00
2022-11-24T03:11:48.185Z,100.00
2022-11-24T03:14:14.992Z,100.00
2022-11-24T03:16:41.710Z,100.00
2022-11-24T03:19:08.389Z,100.00
2022-11-24T03:21:36.593Z,100.00
2022-11-24T03:24:03.445Z,100.00
2022-11-24T03:26:30.185Z,100.00
2022-11-24T03:28:59.138Z,100.00
2022-11-24T03:31:26.192Z,100.00
2022-11-24T03:33:52.924Z,100.00
2022-11-24T03:36:19.720Z,100.00
2022-11-24T03:38:46.530Z,100.00
2022-11-24T03:41:13.469Z,100.00
2022-11-24T03:43:43.817Z,100.00
2022-11-24T03:46:12.277Z,100.00
2022-11-24T03:48:39.114Z,100.00
2022-11-24T03:51:06.020Z,100.00
2022-11-24T03:53:33.882Z,100.00
2022-11-24T03:56:02.493Z,100.00
2022-11-24T03:58:30.204Z,100.00
2022-11-24T04:00:57.812Z,100.00
2022-11-24T04:03:25.145Z,100.00
2022-11-24T04:05:52.346Z,100.00
2022-11-24T04:08:22.410Z,100.00
2022-11-24T04:10:53.295Z,100.00
2022-11-24T04:13:31.513Z,100.00
2022-11-24T04:15:59.232Z,100.00
2022-11-24T04:18:26.882Z,100.00
2022-11-24T04:20:53.696Z,100.00
2022-11-24T04:23:20.379Z,100.00
2022-11-24T04:25:47.266Z,100.00
2022-11-24T04:28:14.436Z,100.00
2022-11-24T04:30:44.884Z,100.00
2022-11-24T04:33:11.818Z,100.00
2022-11-24T04:35:44.621Z,100.00
2022-11-24T04:38:12.507Z,100.00
2022-11-24T04:40:39.281Z,100.00
2022-11-24T04:43:06.047Z,100.00
2022-11-24T04:45:33.820Z,100.00
2022-11-24T04:48:00.524Z,100.00
2022-11-24T04:50:28.307Z,100.00
2022-11-24T04:52:55.086Z,100.00
2022-11-24T04:55:21.999Z,100.00
2022-11-24T04:57:48.653Z,100.00
2022-11-24T05:00:15.660Z,100.00
2022-11-24T05:02:42.577Z,100.00
2022-11-24T05:05:09.642Z,100.00
2022-11-24T05:07:36.647Z,100.00
2022-11-24T05:10:23.037Z,100.00
2022-11-24T05:12:57.467Z,100.00
2022-11-24T05:15:26.150Z,100.00
2022-11-24T05:17:53.096Z,100.00
2022-11-24T05:20:20.278Z,100.00
2022-11-24T05:22:47.044Z,100.00
2022-11-24T05:25:14.369Z,100.00
2022-11-24T05:27:41.055Z,100.00
2022-11-24T05:30:09.071Z,100.00
2022-11-24T05:32:35.888Z,100.00
2022-11-24T05:35:09.877Z,100.00
2022-11-24T05:37:37.241Z,100.00
2022-11-24T05:40:06.989Z,100.00
2022-11-24T05:42:47.168Z,100.00
2022-11-24T05:45:18.860Z,100.00
2022-11-24T05:47:46.670Z,100.00
2022-11-24T05:50:18.241Z,100.00
2022-11-24T05:52:46.137Z,100.00
2022-11-24T05:55:41.168Z,100.00
2022-11-24T05:58:10.138Z,100.00
2022-11-24T06:00:37.116Z,100.00
2022-11-24T06:03:04.168Z,100.00
2022-11-24T06:05:31.381Z,100.00
2022-11-24T06:07:59.827Z,100.00
2022-11-24T06:10:26.698Z,100.00
2022-11-24T06:12:53.428Z,100.00
2022-11-24T06:15:20.176Z,100.00
2022-11-24T06:17:54.916Z,100.00
2022-11-24T06:20:22.261Z,100.00
2022-11-24T06:22:48.940Z,100.00
2022-11-24T06:25:16.336Z,100.00
2022-11-24T06:27:44.066Z,100.00
2022-11-24T06:30:12.074Z,100.00
2022-11-24T06:32:41.655Z,100.00
2022-11-24T06:35:12.404Z,100.00
2022-11-24T06:37:39.693Z,100.00
2022-11-24T06:40:08.939Z,100.00
2022-11-24T06:42:37.246Z,100.00
2022-11-24T06:45:08.737Z,100.00
2022-11-24T06:47:37.461Z,100.00
2022-11-24T06:50:04.801Z,100.00
2022-11-24T06:52:31.828Z,100.00
2022-11-24T06:54:58.525Z,100.00
2022-11-24T06:57:25.218Z,100.00
2022-11-24T06:59:52.210Z,100.00
2022-11-24T07:02:18.995Z,100.00
2022-11-24T07:04:47.724Z,100.00
2022-11-24T07:07:14.700Z,100.00
2022-11-24T07:09:41.481Z,100.00
2022-11-24T07:12:08.252Z,100.00
2022-11-24T07:14:36.895Z,100.00
2022-11-24T07:17:05.650Z,100.00
2022-11-24T07:19:33.657Z,100.00
2022-11-24T07:22:00.520Z,100.00
2022-11-24T07:24:28.454Z,100.00
2022-11-24T07:26:55.339Z,100.00
2022-11-24T07:29:24.452Z,100.00
2022-11-24T07:31:51.451Z,100.00
2022-11-24T07:34:18.365Z,100.00
2022-11-24T07:36:45.371Z,100.00
2022-11-24T07:39:12.167Z,100.00
2022-11-24T07:41:39.083Z,100.00
2022-11-24T07:44:06.078Z,100.00
2022-11-24T07:46:33.009Z,100.00
2022-11-24T07:48:59.921Z,100.00
2022-11-24T07:51:26.625Z,100.00
2022-11-24T07:53:53.504Z,100.00
2022-11-24T07:56:20.360Z,100.00
2022-11-24T07:58:51.335Z,100.00
2022-11-24T08:01:19.666Z,100.00
2022-11-24T08:03:47.612Z,100.00
2022-11-24T08:06:24.949Z,100.00
2022-11-24T08:08:52.160Z,100.00
2022-11-24T08:11:18.878Z,100.00
2022-11-24T08:13:46.064Z,100.00
2022-11-24T08:16:15.194Z,100.00
2022-11-24T08:18:42.772Z,100.00
2022-11-24T08:21:14.118Z,100.00
2022-11-24T08:23:41.613Z,100.00
2022-11-24T08:26:13.789Z,100.00
2022-11-24T08:28:40.747Z,100.00
2022-11-24T08:31:09.884Z,100.00
2022-11-24T08:33:37.161Z,100.00
2022-11-24T08:36:08.226Z,100.00
2022-11-24T08:38:35.443Z,100.00
2022-11-24T08:41:04.442Z,100.00
2022-11-24T08:43:31.251Z,100.00
2022-11-24T08:46:03.042Z,100.00
2022-11-24T08:48:30.318Z,100.00
2022-11-24T08:50:57.761Z,100.00
2022-11-24T08:53:25.079Z,100.00
2022-11-24T08:55:52.090Z,100.00
2022-11-24T08:58:18.910Z,100.00
2022-11-24T09:00:45.755Z,100.00
2022-11-24T09:03:12.680Z,100.00
2022-11-24T09:05:54.953Z,100.00
2022-11-24T09:08:25.088Z,100.00
2022-11-24T09:10:51.984Z,100.00
2022-11-24T09:13:18.884Z,100.00
2022-11-24T09:15:45.777Z,100.00
2022-11-24T09:18:12.717Z,100.00
2022-11-24T09:20:40.978Z,100.00
2022-11-24T09:23:07.681Z,100.00
2022-11-24T09:25:34.719Z,100.00
2022-11-24T09:28:01.567Z,100.00
2022-11-24T09:30:28.638Z,100.00
2022-11-24T09:32:56.970Z,100.00
2022-11-24T09:35:26.828Z,100.00
2022-11-24T09:37:53.628Z,100.00
2022-11-24T09:40:23.023Z,100.00
2022-11-24T09:43:36.543Z,100.00
2022-11-24T09:46:20.760Z,100.00
2022-11-24T09:48:51.261Z,100.00
2022-11-24T09:51:28.827Z,100.00
2022-11-24T09:54:02.862Z,100.00
2022-11-24T09:56:36.883Z,100.00
2022-11-24T10:02:00.856Z,100.00
2022-11-24T10:04:35.266Z,100.00
2022-11-24T10:07:17.153Z,100.00
2022-11-24T10:10:10.104Z,100.00
2022-11-24T10:13:06.098Z,100.00
2022-11-24T10:15:54.109Z,100.00
2022-11-24T10:18:26.932Z,100.00
2022-11-24T10:20:59.672Z,100.00
2022-11-24T10:23:41.324Z,100.00
2022-11-24T10:26:18.229Z,100.00
2022-11-24T10:28:54.261Z,100.00
2022-11-24T10:31:28.602Z,100.00
2022-11-24T10:33:57.869Z,100.00
2022-11-24T10:36:44.889Z,100.00
2022-11-24T10:39:28.813Z,100.00
2022-11-24T10:42:33.634Z,100.00
2022-11-24T10:45:10.392Z,100.00
2022-11-24T10:47:37.280Z,100.00
2022-11-24T10:50:21.415Z,100.00
2022-11-24T10:52:58.609Z,99.77
2022-11-24T10:55:25.533Z,100.00
2022-11-24T10:57:52.325Z,100.00
2022-11-24T11:00:19.084Z,100.00
2022-11-24T11:02:48.343Z,100.00
2022-11-24T11:05:32.579Z,100.00
2022-11-24T11:08:20.024Z,100.00
2022-11-24T11:10:52.085Z,100.00
2022-11-24T11:13:24.797Z,100.00
2022-11-24T11:15:52.297Z,100.00
2022-11-24T11:18:20.356Z,98.88
2022-11-24T11:21:05.540Z,89.13
2022-11-24T11:23:34.441Z,97.04
2022-11-24T11:26:24.087Z,90.44
2022-11-24T11:28:57.740Z,92.83
2022-11-24T11:31:24.751Z,89.39
2022-11-24T11:34:14.418Z,86.93
2022-11-24T11:36:48.101Z,84.45
2022-11-24T11:39:29.819Z,85.43
2022-11-24T11:42:45.350Z,86.17
2022-11-24T11:45:10.421Z,89.06
2022-11-24T11:48:00.940Z,88.71
2022-11-24T11:51:21.731Z,82.24
2022-11-24T11:54:03.747Z,85.43
2022-11-24T11:56:35.388Z,84.39
2022-11-24T11:59:06.292Z,85.20
2022-11-24T12:02:11.240Z,79.50
2022-11-24T12:05:00.496Z,81.89
2022-11-24T12:07:29.997Z,86.21
2022-11-24T12:10:20.088Z,84.62
2022-11-24T12:13:04.272Z,77.85
2022-11-24T12:15:50.227Z,77.58
2022-11-24T12:19:00.243Z,83.97
2022-11-24T12:21:41.985Z,85.76
2022-11-24T12:24:18.155Z,82.69
2022-11-24T12:27:03.417Z,80.97
2022-11-24T12:29:51.632Z,78.94
2022-11-24T12:32:36.910Z,81.46
2022-11-24T12:35:06.364Z,85.03
2022-11-24T12:37:46.616Z,83.96
2022-11-24T12:40:50.968Z,83.03
2022-11-24T12:43:32.719Z,74.06
2022-11-24T12:46:15.590Z,77.82
2022-11-24T12:49:05.167Z,79.47
2022-11-24T12:51:38.117Z,81.20
2022-11-24T12:54:10.782Z,83.61
2022-11-24T12:56:48.948Z,80.64
2022-11-24T12:59:21.891Z,78.67
2022-11-24T13:01:48.848Z,81.89
2022-11-24T13:04:34.471Z,75.83
2022-11-24T13:07:10.994Z,80.71
2022-11-24T13:09:38.196Z,77.92
2022-11-24T13:12:11.368Z,80.52
2022-11-24T13:14:42.091Z,77.53
2022-11-24T13:17:42.040Z,77.44
2022-11-24T13:20:19.567Z,76.88
2022-11-24T13:22:53.014Z,77.54
2022-11-24T13:25:26.368Z,74.94
2022-11-24T13:27:55.519Z,67.88
2022-11-24T13:30:34.446Z,71.73
2022-11-24T13:33:16.854Z,69.95
2022-11-24T13:36:02.446Z,70.88
2022-11-24T13:38:52.326Z,69.82
2022-11-24T13:41:37.085Z,70.79
2022-11-24T13:44:15.742Z,70.65
2022-11-24T13:47:06.371Z,69.02
2022-11-24T13:49:41.476Z,69.80
2022-11-24T13:52:36.462Z,67.58
2022-11-24T13:55:21.472Z,67.02
2022-11-24T13:57:54.388Z,67.23
2022-11-24T14:00:21.173Z,67.08
2022-11-24T14:02:49.187Z,67.60
2022-11-24T14:05:18.153Z,66.24
2022-11-24T14:07:47.265Z,64.61
2022-11-24T14:10:17.037Z,58.23
2022-11-24T14:12:44.018Z,60.78
2022-11-24T14:15:24.741Z,55.36
2022-11-24T14:17:51.989Z,62.82
2022-11-24T14:20:24.600Z,59.24
2022-11-24T14:22:51.820Z,62.70
2022-11-24T14:25:29.921Z,61.65
2022-11-24T14:27:57.427Z,67.11
2022-11-24T14:30:26.206Z,67.70
2022-11-24T14:33:03.480Z,69.09
2022-11-24T14:35:32.695Z,70.23
2022-11-24T14:38:02.338Z,71.80
2022-11-24T14:40:52.617Z,73.70
2022-11-24T14:43:21.623Z,88.06
2022-11-24T14:45:55.641Z,98.69
2022-11-24T14:48:31.701Z,100.00
2022-11-24T14:51:15.309Z,100.00
2022-11-24T14:53:43.710Z,100.00
2022-11-24T14:56:27.230Z,100.00
2022-11-24T14:58:55.578Z,100.00
2022-11-24T15:01:28.512Z,100.00
2022-11-24T15:04:26.616Z,100.00
2022-11-24T15:07:05.887Z,100.00
2022-11-24T15:09:47.759Z,100.00
2022-11-24T15:12:39.475Z,100.00
2022-11-24T15:15:15.439Z,100.00
2022-11-24T15:17:59.829Z,100.00
2022-11-24T15:20:31.976Z,100.00
2022-11-24T15:23:13.644Z,100.00
2022-11-24T15:25:40.401Z,100.00
2022-11-24T15:28:08.726Z,100.00
2022-11-24T15:30:36.968Z,100.00
2022-11-24T15:33:11.595Z,100.00
2022-11-24T15:35:38.947Z,100.00
2022-11-24T15:38:05.807Z,100.00
2022-11-24T15:40:32.781Z,100.00
2022-11-24T15:43:03.445Z,100.00
2022-11-24T15:45:34.621Z,100.00
2022-11-24T15:48:01.300Z,100.00
2022-11-24T15:50:28.081Z,100.00
2022-11-24T15:52:57.662Z,100.00
2022-11-24T15:55:27.048Z,100.00
2022-11-24T15:57:53.743Z,100.00
2022-11-24T16:00:23.196Z,100.00
2022-11-24T16:02:50.489Z,100.00
2022-11-24T16:05:18.148Z,100.00
2022-11-24T16:07:45.171Z,100.00
2022-11-24T16:10:30.461Z,100.00
2022-11-24T16:12:57.399Z,100.00
2022-11-24T16:15:24.216Z,100.00
2022-11-24T16:17:54.716Z,100.00
2022-11-24T16:20:21.511Z,100.00
2022-11-24T16:22:48.318Z,100.00
2022-11-24T16:25:15.312Z,100.00
2022-11-24T16:27:42.196Z,100.00
2022-11-24T16:30:11.049Z,100.00
2022-11-24T16:32:37.916Z,100.00
2022-11-24T16:35:05.205Z,100.00
2022-11-24T16:37:33.625Z,100.00
2022-11-24T16:40:02.642Z,100.00
2022-11-24T16:42:30.783Z,100.00
2022-11-24T16:44:57.625Z,100.00
2022-11-24T16:47:26.232Z,100.00
2022-11-24T16:49:53.441Z,100.00
2022-11-24T16:52:24.963Z,100.00
2022-11-24T16:54:55.835Z,100.00
2022-11-24T16:57:24.508Z,100.00
2022-11-24T16:59:51.584Z,100.00
2022-11-24T17:02:23.161Z,100.00
2022-11-24T17:04:54.407Z,100.00
2022-11-24T17:07:22.137Z,100.00
2022-11-24T17:09:50.392Z,100.00
2022-11-24T17:12:17.767Z,100.00
2022-11-24T17:14:58.058Z,100.00
2022-11-24T17:17:34.788Z,100.00
2022-11-24T17:20:02.559Z,100.00
2022-11-24T17:22:31.168Z,100.00
2022-11-24T17:24:59.543Z,100.00
2022-11-24T17:27:29.228Z,100.00
2022-11-24T17:29:57.340Z,100.00
2022-11-24T17:32:28.356Z,100.00
2022-11-24T17:34:57.603Z,100.00
2022-11-24T17:37:27.154Z,100.00
2022-11-24T17:40:20.695Z,100.00
2022-11-24T17:42:42.501Z,100.00
2022-11-24T17:45:10.909Z,100.00
2022-11-24T17:47:39.593Z,100.00
2022-11-24T17:50:08.040Z,100.00
2022-11-24T17:52:35.056Z,100.00
2022-11-24T17:55:02.625Z,100.00
2022-11-24T17:57:31.668Z,100.00
2022-11-24T18:00:01.850Z,100.00
2022-11-24T18:02:28.856Z,100.00
2022-11-24T18:04:56.399Z,100.00
2022-11-24T18:07:23.407Z,100.00
2022-11-24T18:09:51.335Z,100.00
2022-11-24T18:12:18.079Z,100.00
2022-11-24T18:14:44.842Z,100.00
2022-11-24T18:17:11.696Z,100.00
2022-11-24T18:19:38.405Z,100.00
2022-11-24T18:22:05.237Z,100.00
2022-11-24T18:24:32.031Z,100.00
2022-11-24T18:26:59.090Z,100.00
2022-11-24T18:29:25.823Z,100.00
2022-11-24T18:31:53.304Z,100.00
2022-11-24T18:34:21.427Z,100.00
2022-11-24T18:36:52.444Z,100.00
2022-11-24T18:39:21.298Z,100.00
2022-11-24T18:41:51.436Z,100.00
2022-11-24T18:44:20.233Z,100.00
2022-11-24T18:46:50.923Z,100.00
2022-11-24T18:49:22.476Z,100.00
2022-11-24T18:51:49.404Z,100.00
2022-11-24T18:54:18.269Z,100.00
2022-11-24T18:56:49.147Z,100.00
2022-11-24T18:59:18.917Z,100.00
2022-11-24T19:01:47.451Z,100.00
2022-11-24T19:04:20.192Z,100.00
2022-11-24T19:06:48.365Z,100.00
2022-11-24T19:09:18.479Z,100.00
2022-11-24T19:11:46.867Z,100.00
2022-11-24T19:14:16.638Z,100.00
2022-11-24T19:16:45.237Z,100.00
2022-11-24T19:19:12.875Z,100.00
2022-11-24T19:21:41.249Z,100.00
2022-11-24T19:24:10.592Z,100.00
2022-11-24T19:26:38.365Z,100.00
2022-11-24T19:29:06.797Z,100.00
2022-11-24T19:31:35.620Z,100.00
2022-11-24T19:34:03.574Z,100.00
2022-11-24T19:36:34.666Z,100.00
2022-11-24T19:39:05.255Z,100.00
2022-11-24T19:41:34.528Z,100.00
2022-11-24T19:44:03.929Z,100.00
2022-11-24T19:46:31.415Z,100.00
2022-11-24T19:49:03.125Z,100.00
2022-11-24T19:51:40.397Z,100.00
2022-11-24T19:54:10.627Z,100.00
2022-11-24T19:56:39.144Z,100.00
2022-11-24T19:59:06.984Z,100.00
2022-11-24T20:01:39.459Z,100.00
2022-11-24T20:04:09.759Z,100.00
2022-11-24T20:06:40.137Z,100.00
2022-11-24T20:09:10.786Z,100.00
2022-11-24T20:11:41.284Z,100.00
2022-11-24T20:14:10.965Z,100.00
2022-11-24T20:16:38.801Z,100.00
2022-11-24T20:19:08.924Z,100.00
2022-11-24T20:21:37.631Z,100.00
2022-11-24T20:24:11.891Z,100.00
2022-11-24T20:26:43.239Z,100.00
2022-11-24T20:29:12.193Z,100.00
2022-11-24T20:31:46.621Z,100.00
2022-11-24T20:34:13.726Z,100.00
2022-11-24T20:36:46.974Z,100.00
2022-11-24T20:39:16.978Z,100.00
2022-11-24T20:41:44.635Z,100.00
2022-11-24T20:44:15.516Z,100.00
2022-11-24T20:46:44.306Z,100.00
2022-11-24T20:49:14.053Z,100.00
2022-11-24T20:51:47.115Z,100.00
2022-11-24T20:54:16.275Z,100.00
2022-11-24T20:56:47.714Z,100.00
2022-11-24T20:59:22.010Z,100.00
2022-11-24T21:01:52.498Z,100.00
2022-11-24T21:04:23.030Z,100.00
2022-11-24T21:06:56.372Z,100.00
2022-11-24T21:09:25.483Z,100.00
2022-11-24T21:11:53.047Z,100.00
2022-11-24T21:14:21.019Z,100.00
2022-11-24T21:16:48.529Z,100.00
2022-11-24T21:19:20.405Z,100.00
2022-11-24T21:21:48.976Z,100.00
2022-11-24T21:24:18.770Z,100.00
2022-11-24T21:26:47.896Z,100.00
2022-11-24T21:29:22.905Z,100.00
2022-11-24T21:31:53.289Z,100.00
2022-11-24T21:34:22.356Z,100.00
2022-11-24T21:36:52.833Z,100.00
2022-11-24T21:39:20.861Z,100.00
2022-11-24T21:41:49.900Z,100.00
2022-11-24T21:44:19.611Z,100.00
2022-11-24T21:46:52.702Z,100.00
2022-11-24T21:49:24.069Z,100.00
2022-11-24T21:51:55.561Z,100.00
2022-11-24T21:54:25.304Z,100.00
2022-11-24T21:56:53.957Z,100.00
2022-11-24T21:59:22.992Z,100.00
2022-11-24T22:01:50.991Z,100.00
2022-11-24T22:04:19.591Z,100.00
2022-11-24T22:06:49.196Z,100.00
2022-11-24T22:09:18.726Z,100.00
2022-11-24T22:11:55.266Z,100.00
2022-11-24T22:14:23.599Z,100.00
2022-11-24T22:16:52.551Z,100.00
2022-11-24T22:19:21.364Z,100.00
2022-11-24T22:21:50.030Z,100.00
2022-11-24T22:24:21.745Z,100.00
2022-11-24T22:26:55.469Z,100.00
2022-11-24T22:29:23.792Z,100.00
2022-11-24T22:31:55.174Z,100.00
2022-11-24T22:34:23.995Z,100.00
2022-11-24T22:36:53.823Z,100.00
2022-11-24T22:39:22.767Z,100.00
2022-11-24T22:41:50.525Z,100.00
2022-11-24T22:44:18.666Z,100.00
2022-11-24T22:46:47.047Z,100.00
2022-11-24T22:49:15.081Z,100.00
2022-11-24T22:51:44.132Z,100.00
2022-11-24T22:54:15.333Z,100.00
2022-11-24T22:56:42.679Z,100.00
2022-11-24T22:59:09.420Z,100.00
2022-11-24T23:01:36.208Z,100.00
2022-11-24T23:04:03.941Z,100.00
2022-11-24T23:06:32.694Z,100.00
2022-11-24T23:09:01.191Z,100.00
2022-11-24T23:11:35.150Z,100.00
2022-11-24T23:14:04.580Z,100.00
2022-11-24T23:16:31.346Z,100.00
2022-11-24T23:18:58.372Z,100.00
2022-11-24T23:21:28.384Z,100.00
2022-11-24T23:23:56.009Z,100.00
2022-11-24T23:26:28.306Z,100.00
2022-11-24T23:28:55.195Z,100.00
2022-11-24T23:31:29.819Z,100.00
2022-11-24T23:34:01.280Z,100.00
2022-11-24T23:36:29.421Z,100.00
2022-11-24T23:38:56.617Z,100.00
2022-11-24T23:41:24.849Z,100.00
2022-11-24T23:43:52.724Z,100.00
2022-11-24T23:46:24.511Z,100.00
2022-11-24T23:48:53.298Z,100.00
2022-11-24T23:51:22.940Z,100.00
2022-11-24T23:53:50.555Z,100.00
2022-11-24T23:56:25.740Z,100.00
2022-11-24T23:58:52.768Z,100.00
